createdAt,value
2019-02-28T00:00:46.091Z,2.45
2019-02-28T00:03:14.811Z,2.30
2019-02-28T00:05:44.058Z,3.08
2019-02-28T00:08:12.500Z,2.37
2019-02-28T00:10:40.938Z,2.35
2019-02-28T00:13:09.983Z,3.60
2019-02-28T00:15:38.467Z,2.90
2019-02-28T00:18:06.950Z,3.67
2019-02-28T00:20:36.635Z,3.00
2019-02-28T00:23:05.235Z,3.65
2019-02-28T00:25:37.788Z,4.05
2019-02-28T00:28:04.266Z,3.30
2019-02-28T00:30:32.775Z,3.70
2019-02-28T00:33:01.234Z,6.10
2019-02-28T00:35:29.913Z,4.08
2019-02-28T00:37:58.385Z,3.40
2019-02-28T00:40:26.818Z,3.60
2019-02-28T00:42:55.381Z,5.10
2019-02-28T00:45:23.809Z,4.55
2019-02-28T00:47:52.290Z,3.70
2019-02-28T00:50:20.741Z,3.62
2019-02-28T00:52:49.178Z,4.10
2019-02-28T00:55:17.840Z,4.03
2019-02-28T00:57:46.275Z,3.20
2019-02-28T01:00:19.412Z,3.20
2019-02-28T01:02:52.123Z,3.98
2019-02-28T01:05:18.131Z,3.15
2019-02-28T01:07:48.264Z,3.67
2019-02-28T01:10:17.266Z,3.72
2019-02-28T01:12:46.260Z,4.80
2019-02-28T01:15:16.833Z,3.10
2019-02-28T01:17:45.311Z,3.92
2019-02-28T01:20:16.322Z,5.55
2019-02-28T01:22:44.160Z,4.65
2019-02-28T01:25:14.437Z,3.80
2019-02-28T01:27:42.884Z,3.98
2019-02-28T01:30:13.391Z,3.12
2019-02-28T01:32:41.821Z,4.47
2019-02-28T01:35:10.721Z,3.65
2019-02-28T01:37:39.202Z,4.03
2019-02-28T01:40:10.170Z,3.90
2019-02-28T01:42:38.643Z,4.87
2019-02-28T01:45:10.050Z,4.33
2019-02-28T01:47:39.641Z,4.87
2019-02-28T01:50:10.228Z,4.40
2019-02-28T01:52:44.356Z,4.70
2019-02-28T01:55:10.545Z,5.17
2019-02-28T01:57:42.569Z,4.95
2019-02-28T02:00:17.993Z,5.58
2019-02-28T02:02:46.457Z,8.33
2019-02-28T02:05:17.000Z,8.35
2019-02-28T02:07:45.404Z,8.20
2019-02-28T02:10:22.139Z,6.35
2019-02-28T02:12:51.633Z,6.85
2019-02-28T02:15:20.708Z,6.62
2019-02-28T02:17:49.558Z,7.62
2019-02-28T02:20:18.380Z,7.03
2019-02-28T02:22:46.997Z,9.98
2019-02-28T02:25:15.862Z,8.05
2019-02-28T02:27:44.346Z,10.32
2019-02-28T02:30:21.554Z,7.97
2019-02-28T02:32:49.995Z,8.90
2019-02-28T02:35:18.486Z,9.20
2019-02-28T02:37:46.932Z,9.23
2019-02-28T02:40:16.433Z,10.63
2019-02-28T02:42:48.411Z,14.20
2019-02-28T02:45:16.121Z,8.25
2019-02-28T02:47:44.659Z,8.95
2019-02-28T02:50:16.380Z,7.33
2019-02-28T02:52:44.842Z,9.10
2019-02-28T02:55:14.061Z,8.33
2019-02-28T02:57:42.939Z,7.97
2019-02-28T03:00:17.304Z,6.97
2019-02-28T03:02:45.808Z,9.18
2019-02-28T03:05:14.800Z,7.55
2019-02-28T03:07:44.338Z,10.43
2019-02-28T03:10:17.479Z,14.85
2019-02-28T03:12:45.391Z,8.50
2019-02-28T03:15:15.690Z,10.63
2019-02-28T03:17:47.131Z,13.25
2019-02-28T03:20:14.964Z,8.75
2019-02-28T03:22:43.435Z,14.53
2019-02-28T03:25:15.769Z,15.38
2019-02-28T03:27:44.319Z,14.35
2019-02-28T03:30:26.235Z,13.70
2019-02-28T03:32:46.071Z,13.75
2019-02-28T03:35:14.631Z,14.18
2019-02-28T03:37:43.158Z,13.30
2019-02-28T03:40:13.051Z,15.58
2019-02-28T03:42:41.534Z,15.80
2019-02-28T03:45:12.845Z,16.85
2019-02-28T03:47:41.396Z,14.07
2019-02-28T03:50:11.229Z,11.08
2019-02-28T03:52:43.926Z,14.73
2019-02-28T03:55:11.911Z,12.75
2019-02-28T03:57:40.389Z,10.55
2019-02-28T04:00:23.477Z,11.15
2019-02-28T04:02:56.826Z,11.35
2019-02-28T04:05:27.162Z,10.28
2019-02-28T04:07:54.626Z,11.20
2019-02-28T04:10:22.921Z,11.25
2019-02-28T04:12:51.408Z,14.80
2019-02-28T04:15:20.611Z,11.65
2019-02-28T04:17:49.105Z,10.20
2019-02-28T04:20:17.615Z,14.13
2019-02-28T04:22:46.066Z,12.82
2019-02-28T04:25:14.592Z,13.93
2019-02-28T04:27:43.115Z,11.88
2019-02-28T04:30:15.307Z,9.20
2019-02-28T04:32:43.726Z,9.88
2019-02-28T04:35:13.323Z,11.83
2019-02-28T04:37:46.557Z,10.58
2019-02-28T04:40:13.034Z,14.47
2019-02-28T04:42:41.575Z,11.97
2019-02-28T04:45:12.084Z,13.62
2019-02-28T04:47:41.689Z,15.13
2019-02-28T04:50:11.552Z,11.85
2019-02-28T04:52:39.987Z,10.65
2019-02-28T04:55:09.418Z,13.28
2019-02-28T04:57:37.848Z,11.80
2019-02-28T05:00:17.791Z,11.65
2019-02-28T05:02:46.268Z,9.93
2019-02-28T05:05:14.739Z,12.25
2019-02-28T05:07:43.196Z,13.35
2019-02-28T05:10:12.322Z,12.88
2019-02-28T05:12:41.145Z,10.98
2019-02-28T05:15:12.099Z,11.40
2019-02-28T05:17:40.509Z,11.40
2019-02-28T05:20:12.175Z,13.00
2019-02-28T05:22:40.885Z,10.53
2019-02-28T05:25:10.700Z,9.83
2019-02-28T05:27:39.295Z,9.93
2019-02-28T05:30:17.994Z,10.40
2019-02-28T05:32:45.281Z,11.30
2019-02-28T05:35:13.825Z,10.28
2019-02-28T05:37:46.890Z,9.08
2019-02-28T05:40:14.923Z,8.30
2019-02-28T05:42:43.459Z,8.73
2019-02-28T05:45:14.863Z,11.33
2019-02-28T05:47:46.265Z,13.53
2019-02-28T05:50:16.632Z,9.60
2019-02-28T05:52:43.284Z,11.20
2019-02-28T05:55:12.177Z,10.98
2019-02-28T05:57:43.379Z,11.08
2019-02-28T06:00:15.151Z,12.55
2019-02-28T06:02:43.586Z,9.80
2019-02-28T06:05:12.912Z,14.28
2019-02-28T06:07:41.574Z,10.45
2019-02-28T06:10:12.128Z,15.00
2019-02-28T06:12:43.931Z,11.15
2019-02-28T06:15:14.990Z,15.20
2019-02-28T06:17:43.512Z,19.45
2019-02-28T06:20:16.425Z,14.40
2019-02-28T06:22:42.899Z,12.35
2019-02-28T06:25:12.800Z,17.42
2019-02-28T06:27:42.319Z,12.82
2019-02-28T06:30:16.248Z,14.03
2019-02-28T06:32:44.757Z,9.35
2019-02-28T06:35:16.478Z,19.92
2019-02-28T06:37:43.642Z,10.80
2019-02-28T06:40:16.951Z,23.85
2019-02-28T06:42:46.986Z,12.13
2019-02-28T06:45:19.234Z,13.03
2019-02-28T06:47:49.706Z,20.23
2019-02-28T06:50:18.243Z,12.65
2019-02-28T06:52:46.833Z,22.02
2019-02-28T06:55:25.652Z,13.43
2019-02-28T06:57:54.141Z,20.62
2019-02-28T07:00:22.764Z,13.58
2019-02-28T07:02:51.224Z,17.70
2019-02-28T07:05:24.833Z,15.70
2019-02-28T07:07:50.232Z,16.25
2019-02-28T07:10:18.925Z,10.68
2019-02-28T07:12:47.473Z,19.27
2019-02-28T07:15:15.968Z,15.50
2019-02-28T07:17:46.540Z,12.23
2019-02-28T07:20:16.233Z,11.80
2019-02-28T07:22:46.203Z,15.75
2019-02-28T07:25:14.652Z,13.55
2019-02-28T07:27:43.207Z,11.88
2019-02-28T07:30:18.438Z,12.63
2019-02-28T07:32:46.599Z,11.15
2019-02-28T07:35:15.105Z,9.83
2019-02-28T07:37:43.719Z,15.70
2019-02-28T07:40:16.229Z,23.42
2019-02-28T07:42:44.235Z,13.32
2019-02-28T07:45:14.202Z,19.17
2019-02-28T07:47:42.645Z,12.23
2019-02-28T07:50:13.193Z,15.93
2019-02-28T07:52:41.627Z,14.40
2019-02-28T07:55:14.891Z,14.80
2019-02-28T07:57:43.335Z,18.40
2019-02-28T08:00:25.374Z,18.42
2019-02-28T08:02:54.250Z,17.17
2019-02-28T08:05:23.059Z,14.95
2019-02-28T08:07:52.582Z,23.05
2019-02-28T08:10:26.932Z,24.05
2019-02-28T08:12:55.463Z,22.02
2019-02-28T08:15:25.144Z,22.30
2019-02-28T08:17:53.605Z,24.33
2019-02-28T08:20:22.110Z,25.37
2019-02-28T08:22:50.598Z,19.07
2019-02-28T08:25:19.025Z,23.52
2019-02-28T08:27:47.498Z,17.45
2019-02-28T08:30:21.569Z,23.52
2019-02-28T08:32:50.066Z,18.80
2019-02-28T08:35:18.625Z,17.17
2019-02-28T08:37:47.062Z,24.02
2019-02-28T08:40:26.339Z,12.25
2019-02-28T08:42:53.740Z,18.82
2019-02-28T08:45:22.341Z,23.85
2019-02-28T08:47:55.248Z,17.10
2019-02-28T08:50:23.743Z,20.72
2019-02-28T08:52:54.936Z,12.82
2019-02-28T08:55:28.802Z,21.97
2019-02-28T08:57:56.967Z,12.18
2019-02-28T09:00:31.071Z,18.67
2019-02-28T09:02:55.145Z,17.25
2019-02-28T09:05:26.105Z,11.28
2019-02-28T09:07:53.933Z,26.12
2019-02-28T09:10:26.389Z,19.17
2019-02-28T09:12:54.909Z,15.95
2019-02-28T09:15:23.486Z,13.53
2019-02-28T09:17:52.011Z,17.70
2019-02-28T09:20:20.598Z,21.10
2019-02-28T09:22:49.219Z,11.95
2019-02-28T09:25:22.753Z,17.25
2019-02-28T09:27:51.555Z,10.78
2019-02-28T09:30:26.598Z,12.05
2019-02-28T09:32:57.701Z,11.15
2019-02-28T09:35:26.227Z,18.57
2019-02-28T09:37:54.695Z,16.80
2019-02-28T09:40:25.687Z,10.05
2019-02-28T09:42:53.367Z,15.38
2019-02-28T09:45:24.322Z,15.75
2019-02-28T09:47:52.799Z,13.78
2019-02-28T09:50:23.326Z,16.87
2019-02-28T09:52:53.403Z,19.85
2019-02-28T09:55:21.959Z,12.53
2019-02-28T09:57:54.065Z,11.22
2019-02-28T10:00:28.546Z,10.95
2019-02-28T10:02:56.994Z,15.98
2019-02-28T10:05:25.535Z,12.05
2019-02-28T10:07:54.088Z,14.47
2019-02-28T10:10:27.202Z,11.90
2019-02-28T10:12:56.808Z,17.82
2019-02-28T10:15:25.953Z,16.77
2019-02-28T10:17:54.473Z,10.88
2019-02-28T10:20:28.932Z,18.92
2019-02-28T10:22:57.376Z,10.82
2019-02-28T10:25:25.897Z,10.45
2019-02-28T10:27:54.892Z,12.03
2019-02-28T10:30:31.657Z,15.53
2019-02-28T10:32:55.294Z,14.03
2019-02-28T10:35:23.826Z,17.52
2019-02-28T10:37:57.203Z,17.70
2019-02-28T10:40:28.600Z,18.80
2019-02-28T10:42:57.241Z,12.03
2019-02-28T10:45:26.789Z,16.12
2019-02-28T10:47:55.363Z,12.68
2019-02-28T10:50:31.943Z,11.20
2019-02-28T10:52:56.522Z,14.07
2019-02-28T10:55:24.998Z,16.75
2019-02-28T10:57:53.607Z,15.10
2019-02-28T11:00:32.933Z,18.40
2019-02-28T11:03:02.294Z,14.30
2019-02-28T11:05:32.787Z,10.72
2019-02-28T11:08:01.776Z,15.75
2019-02-28T11:10:38.729Z,15.05
2019-02-28T11:13:10.586Z,11.88
2019-02-28T11:15:39.117Z,12.37
2019-02-28T11:18:09.722Z,14.40
2019-02-28T11:20:39.074Z,9.25
2019-02-28T11:23:07.854Z,14.70
2019-02-28T11:25:36.553Z,11.48
2019-02-28T11:28:05.645Z,14.07
2019-02-28T11:30:36.064Z,9.80
2019-02-28T11:33:05.374Z,12.30
2019-02-28T11:35:34.236Z,22.62
2019-02-28T11:38:04.833Z,21.05
2019-02-28T11:40:33.068Z,17.05
2019-02-28T11:43:03.862Z,17.62
2019-02-28T11:45:37.519Z,13.58
2019-02-28T11:48:08.938Z,10.75
2019-02-28T11:50:41.194Z,15.48
2019-02-28T11:53:08.082Z,9.48
2019-02-28T11:55:36.567Z,11.08
2019-02-28T11:58:05.311Z,10.32
2019-02-28T12:00:38.751Z,11.33
2019-02-28T12:03:07.544Z,10.90
2019-02-28T12:05:36.019Z,9.45
2019-02-28T12:08:09.237Z,8.25
2019-02-28T12:10:34.824Z,12.55
2019-02-28T12:13:03.309Z,14.55
2019-02-28T12:15:39.626Z,13.70
2019-02-28T12:18:08.179Z,13.13
2019-02-28T12:20:36.627Z,8.25
2019-02-28T12:23:05.216Z,13.08
2019-02-28T12:25:33.688Z,21.02
2019-02-28T12:28:03.768Z,11.95
2019-02-28T12:30:35.771Z,14.58
2019-02-28T12:33:04.321Z,14.33
2019-02-28T12:35:36.269Z,15.23
2019-02-28T12:38:03.760Z,12.47
2019-02-28T12:40:33.987Z,10.20
2019-02-28T12:43:05.393Z,17.07
2019-02-28T12:45:37.227Z,18.07
2019-02-28T12:48:05.792Z,17.98
2019-02-28T12:50:34.416Z,13.10
2019-02-28T12:53:02.943Z,10.20
2019-02-28T12:55:31.929Z,9.55
2019-02-28T12:58:00.409Z,7.53
2019-02-28T13:00:39.847Z,8.20
2019-02-28T13:03:09.251Z,9.45
2019-02-28T13:05:37.997Z,9.03
2019-02-28T13:08:07.047Z,11.35
2019-02-28T13:10:36.111Z,12.90
2019-02-28T13:13:06.912Z,13.43
2019-02-28T13:15:35.204Z,13.30
2019-02-28T13:18:07.176Z,11.68
2019-02-28T13:20:36.552Z,9.75
2019-02-28T13:23:05.415Z,12.25
2019-02-28T13:25:33.933Z,11.80
2019-02-28T13:28:02.409Z,14.15
2019-02-28T13:30:30.958Z,12.80
2019-02-28T13:32:59.413Z,8.25
2019-02-28T13:35:45.689Z,11.55
2019-02-28T13:38:09.521Z,10.82
2019-02-28T13:40:40.825Z,11.40
2019-02-28T13:43:08.584Z,8.55
2019-02-28T13:45:37.053Z,11.18
2019-02-28T13:48:05.541Z,12.23
2019-02-28T13:50:38.071Z,12.33
2019-02-28T13:53:17.285Z,10.93
2019-02-28T13:55:38.704Z,17.55
2019-02-28T13:58:07.315Z,12.30
2019-02-28T14:00:43.647Z,10.45
2019-02-28T14:03:11.739Z,9.30
2019-02-28T14:05:41.541Z,13.08
2019-02-28T14:08:11.980Z,12.82
2019-02-28T14:10:40.893Z,9.65
2019-02-28T14:13:09.749Z,9.75
2019-02-28T14:15:52.423Z,13.50
2019-02-28T14:18:19.361Z,13.43
2019-02-28T14:20:49.181Z,11.70
2019-02-28T14:23:20.745Z,9.98
2019-02-28T14:25:47.877Z,14.55
2019-02-28T14:28:16.427Z,10.68
2019-02-28T14:30:45.009Z,12.80
2019-02-28T14:33:16.048Z,13.00
2019-02-28T14:35:43.740Z,14.70
2019-02-28T14:38:12.233Z,17.82
2019-02-28T14:40:40.693Z,12.78
2019-02-28T14:43:09.134Z,13.38
2019-02-28T14:45:45.710Z,11.18
2019-02-28T14:48:14.151Z,16.50
2019-02-28T14:50:42.611Z,13.80
2019-02-28T14:53:14.394Z,15.83
2019-02-28T14:55:41.283Z,11.88
2019-02-28T14:58:09.812Z,10.25
2019-02-28T15:00:38.996Z,15.23
2019-02-28T15:03:08.972Z,8.98
2019-02-28T15:05:41.548Z,9.55
2019-02-28T15:08:11.920Z,10.70
2019-02-28T15:10:43.844Z,16.07
2019-02-28T15:13:12.358Z,9.50
2019-02-28T15:15:40.831Z,9.53
2019-02-28T15:18:10.935Z,8.30
2019-02-28T15:20:39.541Z,16.77
2019-02-28T15:23:08.077Z,8.55
2019-02-28T15:25:36.552Z,6.85
2019-02-28T15:28:04.986Z,7.78
2019-02-28T15:30:38.656Z,7.55
2019-02-28T15:33:07.136Z,6.77
2019-02-28T15:35:36.528Z,8.98
2019-02-28T15:38:05.811Z,7.42
2019-02-28T15:40:47.882Z,7.97
2019-02-28T15:43:18.245Z,8.55
2019-02-28T15:45:46.958Z,15.25
2019-02-28T15:48:15.423Z,9.18
2019-02-28T15:50:43.908Z,10.15
2019-02-28T15:53:15.127Z,8.35
2019-02-28T15:55:42.655Z,8.18
2019-02-28T15:58:11.729Z,6.75
2019-02-28T16:00:40.234Z,5.97
2019-02-28T16:03:08.809Z,9.68
2019-02-28T16:05:42.440Z,9.68
2019-02-28T16:08:10.533Z,8.80
2019-02-28T16:10:40.221Z,7.00
2019-02-28T16:13:08.776Z,7.58
2019-02-28T16:15:37.538Z,6.05
2019-02-28T16:18:08.731Z,11.08
2019-02-28T16:20:38.217Z,5.83
2019-02-28T16:23:06.781Z,7.08
2019-02-28T16:25:39.026Z,7.45
2019-02-28T16:28:10.483Z,7.40
2019-02-28T16:30:39.607Z,7.05
2019-02-28T16:33:08.308Z,8.45
2019-02-28T16:35:36.764Z,11.70
2019-02-28T16:38:06.566Z,9.30
2019-02-28T16:40:35.576Z,8.55
2019-02-28T16:43:04.218Z,10.40
2019-02-28T16:45:43.355Z,9.00
2019-02-28T16:48:11.945Z,12.28
2019-02-28T16:50:40.420Z,8.80
2019-02-28T16:53:14.958Z,7.30
2019-02-28T16:55:39.205Z,7.60
2019-02-28T16:58:07.741Z,10.60
2019-02-28T17:00:36.351Z,14.43
2019-02-28T17:03:07.428Z,11.25
2019-02-28T17:05:35.925Z,16.73
2019-02-28T17:08:06.753Z,15.30
2019-02-28T17:10:39.754Z,8.53
2019-02-28T17:13:15.070Z,7.37
2019-02-28T17:16:03.495Z,10.95
2019-02-28T17:18:33.881Z,7.90
2019-02-28T17:21:02.434Z,9.18
2019-02-28T17:23:33.613Z,7.33
2019-02-28T17:26:01.288Z,11.53
2019-02-28T17:28:49.837Z,8.48
2019-02-28T17:31:35.759Z,7.60
2019-02-28T17:34:04.628Z,7.70
2019-02-28T17:36:33.447Z,9.10
2019-02-28T17:39:01.864Z,7.97
2019-02-28T17:41:30.474Z,7.95
2019-02-28T17:44:10.950Z,8.38
2019-02-28T17:46:39.767Z,8.80
2019-02-28T17:49:23.308Z,9.93
2019-02-28T17:51:58.543Z,7.90
2019-02-28T17:54:33.165Z,7.28
2019-02-28T18:00:09.510Z,14.80
2019-02-28T18:02:46.976Z,8.18
2019-02-28T18:05:47.354Z,8.70
2019-02-28T18:08:21.569Z,6.85
2019-02-28T18:11:25.169Z,6.58
2019-02-28T18:14:19.191Z,5.83
2019-02-28T18:17:15.262Z,7.00
2019-02-28T18:19:51.122Z,7.17
2019-02-28T18:22:25.698Z,9.95
2019-02-28T18:25:14.065Z,8.35
2019-02-28T18:28:03.489Z,7.45
2019-02-28T18:31:09.851Z,9.28
2019-02-28T18:33:41.780Z,10.38
2019-02-28T18:36:13.957Z,8.83
2019-02-28T18:38:42.463Z,9.58
2019-02-28T18:41:10.997Z,9.25
2019-02-28T18:43:40.462Z,7.92
2019-02-28T18:46:08.966Z,8.90
2019-02-28T18:48:37.411Z,9.18
2019-02-28T18:51:05.955Z,7.70
2019-02-28T18:53:34.419Z,7.08
2019-02-28T18:56:02.862Z,6.28
2019-02-28T18:58:31.321Z,11.30
2019-02-28T19:01:00.160Z,7.92
2019-02-28T19:03:28.629Z,10.28
2019-02-28T19:05:57.075Z,7.03
2019-02-28T19:08:25.499Z,7.15
2019-02-28T19:10:55.005Z,5.55
2019-02-28T19:13:23.675Z,7.20
2019-02-28T19:15:52.176Z,6.12
2019-02-28T19:18:20.620Z,5.90
2019-02-28T19:20:49.080Z,6.42
2019-02-28T19:23:17.545Z,5.67
2019-02-28T19:25:45.977Z,5.87
2019-02-28T19:28:14.476Z,8.80
2019-02-28T19:30:42.912Z,6.70
2019-02-28T19:33:11.576Z,6.55
2019-02-28T19:35:40.126Z,5.95
2019-02-28T19:38:08.577Z,5.45
2019-02-28T19:40:39.060Z,5.50
2019-02-28T19:43:09.296Z,5.33
2019-02-28T19:45:41.231Z,5.70
2019-02-28T19:48:09.714Z,8.68
2019-02-28T19:50:38.194Z,6.42
2019-02-28T19:53:06.719Z,7.15
2019-02-28T19:55:35.350Z,6.97
2019-02-28T19:58:03.822Z,7.35
2019-02-28T20:00:32.247Z,6.60
2019-02-28T20:03:00.718Z,7.47
2019-02-28T20:05:29.204Z,8.95
2019-02-28T20:07:57.657Z,7.47
2019-02-28T20:10:26.128Z,7.12
2019-02-28T20:12:54.571Z,8.75
2019-02-28T20:15:27.305Z,11.10
2019-02-28T20:17:55.160Z,17.45
2019-02-28T20:20:25.923Z,15.78
2019-02-28T20:22:54.468Z,15.23
2019-02-28T20:25:22.948Z,12.33
2019-02-28T20:27:51.384Z,9.38
2019-02-28T20:30:22.145Z,9.65
2019-02-28T20:32:50.692Z,10.70
2019-02-28T20:35:26.110Z,17.37
2019-02-28T20:37:49.417Z,10.70
2019-02-28T20:40:23.848Z,11.03
2019-02-28T20:42:52.352Z,10.15
2019-02-28T20:45:20.815Z,9.28
2019-02-28T20:47:49.280Z,9.95
2019-02-28T20:50:26.862Z,9.00
2019-02-28T20:52:55.589Z,8.83
2019-02-28T20:55:24.254Z,14.00
2019-02-28T20:57:52.729Z,7.42
2019-02-28T21:00:22.920Z,13.45
2019-02-28T21:02:51.309Z,9.90
2019-02-28T21:05:19.782Z,8.25
2019-02-28T21:07:48.235Z,8.10
2019-02-28T21:10:16.743Z,6.92
2019-02-28T21:12:45.338Z,7.05
2019-02-28T21:15:14.453Z,8.85
2019-02-28T21:17:42.959Z,7.45
2019-02-28T21:20:15.997Z,9.05
2019-02-28T21:22:44.457Z,7.42
2019-02-28T21:25:15.413Z,7.28
2019-02-28T21:27:43.924Z,7.35
2019-02-28T21:30:26.248Z,8.25
2019-02-28T21:32:54.754Z,8.03
2019-02-28T21:35:23.836Z,7.58
2019-02-28T21:37:52.406Z,7.97
2019-02-28T21:40:22.419Z,8.13
2019-02-28T21:42:51.005Z,10.15
2019-02-28T21:45:21.794Z,8.78
2019-02-28T21:47:50.273Z,9.00
2019-02-28T21:50:19.073Z,8.93
2019-02-28T21:52:48.130Z,8.20
2019-02-28T21:55:17.336Z,7.25
2019-02-28T21:57:45.878Z,8.43
2019-02-28T22:00:19.541Z,7.90
2019-02-28T22:02:48.054Z,5.90
2019-02-28T22:05:16.671Z,9.58
2019-02-28T22:07:45.237Z,7.08
2019-02-28T22:10:15.138Z,7.08
2019-02-28T22:12:43.629Z,6.92
2019-02-28T22:15:20.674Z,7.78
2019-02-28T22:17:49.265Z,10.05
2019-02-28T22:20:17.796Z,8.95
2019-02-28T22:22:46.409Z,9.13
2019-02-28T22:25:15.947Z,9.05
2019-02-28T22:27:44.467Z,11.60
2019-02-28T22:30:30.102Z,17.95
2019-02-28T22:33:00.202Z,10.70
2019-02-28T22:35:30.282Z,9.95
2019-02-28T22:37:58.796Z,8.43
2019-02-28T22:40:27.238Z,8.15
2019-02-28T22:42:55.719Z,8.13
2019-02-28T22:45:24.213Z,7.17
2019-02-28T22:47:52.689Z,7.67
2019-02-28T22:50:21.251Z,7.42
2019-02-28T22:52:49.677Z,6.60
2019-02-28T22:55:18.116Z,9.60
2019-02-28T22:57:46.666Z,10.32
2019-02-28T23:00:21.184Z,6.58
2019-02-28T23:05:17.446Z,5.85
2019-02-28T23:07:45.909Z,8.18
2019-02-28T23:10:14.414Z,8.80
2019-02-28T23:12:42.835Z,6.60
2019-02-28T23:15:11.328Z,7.33
2019-02-28T23:17:39.779Z,6.45
2019-02-28T23:20:09.401Z,5.33
2019-02-28T23:22:37.911Z,5.60
2019-02-28T23:25:06.955Z,6.53
2019-02-28T23:27:35.402Z,7.05
2019-02-28T23:30:32.592Z,6.53
2019-02-28T23:33:02.170Z,5.53
2019-02-28T23:35:33.258Z,5.17
2019-02-28T23:38:01.750Z,6.03
2019-02-28T23:40:30.329Z,4.87
2019-02-28T23:42:58.769Z,6.25
2019-02-28T23:45:27.250Z,9.05
2019-02-28T23:47:55.713Z,5.97
2019-02-28T23:50:24.193Z,5.45
2019-02-28T23:52:52.685Z,7.05
2019-02-28T23:55:21.134Z,7.25
2019-02-28T23:57:49.636Z,8.23
